createdAt,value
2022-10-18T00:00:17.994Z,361
2022-10-18T00:01:18.139Z,371
2022-10-18T00:02:18.017Z,366
2022-10-18T00:03:16.718Z,363
2022-10-18T00:04:18.019Z,377
2022-10-18T00:05:16.909Z,368
2022-10-18T00:06:17.786Z,351
2022-10-18T00:07:17.360Z,369
2022-10-18T00:08:17.505Z,363
2022-10-18T00:10:17.041Z,362
2022-10-18T00:11:17.238Z,363
2022-10-18T00:12:17.540Z,364
2022-10-18T00:13:17.438Z,359
2022-10-18T00:14:18.082Z,364
2022-10-18T00:15:18.306Z,361
2022-10-18T00:16:17.713Z,369
2022-10-18T00:17:17.868Z,371
2022-10-18T00:18:17.372Z,364
2022-10-18T00:19:17.366Z,360
2022-10-18T00:20:17.585Z,354
2022-10-18T00:21:16.995Z,340
2022-10-18T00:22:16.377Z,389
2022-10-18T00:23:17.729Z,353
2022-10-18T00:24:17.234Z,351
2022-10-18T00:25:16.992Z,365
2022-10-18T00:26:17.772Z,356
2022-10-18T00:27:16.611Z,358
2022-10-18T00:28:17.881Z,368
2022-10-18T00:29:19.314Z,369
2022-10-18T00:30:17.292Z,368
2022-10-18T00:32:18.019Z,369
2022-10-18T00:33:17.573Z,366
2022-10-18T00:35:17.566Z,371
2022-10-18T00:36:17.048Z,356
2022-10-18T00:37:17.050Z,361
2022-10-18T00:38:17.503Z,364
2022-10-18T00:39:17.184Z,369
2022-10-18T00:40:17.307Z,361
2022-10-18T00:41:16.795Z,363
2022-10-18T00:43:17.269Z,366
2022-10-18T00:44:17.511Z,369
2022-10-18T00:45:18.256Z,360
2022-10-18T00:46:16.425Z,365
2022-10-18T00:47:17.643Z,375
2022-10-18T00:48:17.781Z,370
2022-10-18T00:49:16.502Z,343
2022-10-18T00:50:17.067Z,342
2022-10-18T00:51:18.369Z,363
2022-10-18T00:52:16.269Z,361
2022-10-18T00:53:17.240Z,364
2022-10-18T00:54:17.221Z,359
2022-10-18T00:55:17.473Z,348
2022-10-18T00:56:18.460Z,372
2022-10-18T00:57:17.249Z,360
2022-10-18T00:58:17.429Z,344
2022-10-18T00:59:16.984Z,353
2022-10-18T01:00:17.443Z,356
2022-10-18T01:02:16.877Z,362
2022-10-18T01:03:18.589Z,364
2022-10-18T01:04:17.490Z,370
2022-10-18T01:05:16.986Z,368
2022-10-18T01:06:16.710Z,370
2022-10-18T01:07:17.499Z,363
2022-10-18T01:08:17.015Z,360
2022-10-18T01:09:15.770Z,370
2022-10-18T01:10:17.676Z,365
2022-10-18T01:11:17.546Z,362
2022-10-18T01:12:16.397Z,359
2022-10-18T01:13:19.028Z,364
2022-10-18T01:15:16.297Z,377
2022-10-18T01:16:17.394Z,386
2022-10-18T01:17:16.488Z,374
2022-10-18T01:18:16.065Z,386
2022-10-18T01:19:16.766Z,373
2022-10-18T01:20:16.264Z,367
2022-10-18T01:21:16.322Z,371
2022-10-18T01:22:17.713Z,373
2022-10-18T01:23:16.390Z,368
2022-10-18T01:25:16.382Z,364
2022-10-18T01:26:15.911Z,361
2022-10-18T01:27:16.952Z,362
2022-10-18T01:28:16.404Z,363
2022-10-18T01:29:16.166Z,358
2022-10-18T01:30:16.706Z,346
2022-10-18T01:31:18.030Z,391
2022-10-18T01:32:16.494Z,372
2022-10-18T01:33:17.289Z,371
2022-10-18T01:34:16.673Z,368
2022-10-18T01:35:15.964Z,367
2022-10-18T01:36:16.951Z,366
2022-10-18T01:37:16.526Z,364
2022-10-18T01:38:16.094Z,363
2022-10-18T01:39:16.554Z,355
2022-10-18T01:40:16.044Z,353
2022-10-18T01:41:21.928Z,366
2022-10-18T01:42:16.575Z,368
2022-10-18T01:43:16.056Z,366
2022-10-18T01:44:16.669Z,371
2022-10-18T01:45:16.820Z,374
2022-10-18T01:46:15.861Z,377
2022-10-18T01:47:17.011Z,371
2022-10-18T01:48:16.445Z,376
2022-10-18T01:49:15.778Z,368
2022-10-18T01:50:16.721Z,367
2022-10-18T01:51:16.145Z,365
2022-10-18T01:52:16.025Z,357
2022-10-18T01:54:15.939Z,361
2022-10-18T01:55:16.286Z,371
2022-10-18T01:56:16.991Z,374
2022-10-18T01:57:15.710Z,368
2022-10-18T01:58:16.882Z,356
2022-10-18T01:59:16.461Z,363
2022-10-18T02:00:15.896Z,365
2022-10-18T02:01:16.630Z,361
2022-10-18T02:03:16.754Z,370
2022-10-18T02:04:16.492Z,366
2022-10-18T02:05:16.769Z,358
2022-10-18T02:06:15.761Z,394
2022-10-18T02:07:16.630Z,375
2022-10-18T02:08:27.492Z,380
2022-10-18T02:09:19.827Z,398
2022-10-18T02:10:16.318Z,391
2022-10-18T02:11:16.603Z,389
2022-10-18T02:12:16.204Z,396
2022-10-18T02:13:16.672Z,402
2022-10-18T02:14:16.820Z,396
2022-10-18T02:15:17.278Z,387
2022-10-18T02:17:16.482Z,376
2022-10-18T02:18:17.117Z,384
2022-10-18T02:19:16.757Z,386
2022-10-18T02:20:16.188Z,397
2022-10-18T02:21:16.755Z,387
2022-10-18T02:22:16.298Z,381
2022-10-18T02:23:16.689Z,384
2022-10-18T02:24:18.646Z,385
2022-10-18T02:25:16.425Z,366
2022-10-18T02:26:16.378Z,362
2022-10-18T02:27:16.777Z,365
2022-10-18T02:28:16.434Z,372
2022-10-18T02:29:21.288Z,368
2022-10-18T02:30:17.468Z,376
2022-10-18T02:31:16.056Z,374
2022-10-18T02:32:16.609Z,370
2022-10-18T02:33:16.756Z,362
2022-10-18T02:34:17.892Z,372
2022-10-18T02:35:17.447Z,375
2022-10-18T02:36:16.440Z,374
2022-10-18T02:37:17.619Z,370
2022-10-18T02:38:17.657Z,375
2022-10-18T02:39:16.784Z,371
2022-10-18T02:40:17.555Z,372
2022-10-18T02:41:17.160Z,365
2022-10-18T02:42:16.224Z,372
2022-10-18T02:43:18.496Z,377
2022-10-18T02:44:17.133Z,376
2022-10-18T02:45:16.975Z,378
2022-10-18T02:46:17.989Z,372
2022-10-18T02:47:16.594Z,367
2022-10-18T02:50:17.379Z,371
2022-10-18T02:51:17.140Z,376
2022-10-18T02:52:18.249Z,372
2022-10-18T02:54:17.542Z,378
2022-10-18T02:55:16.813Z,382
2022-10-18T02:56:16.877Z,376
2022-10-18T02:57:17.608Z,362
2022-10-18T02:58:16.745Z,404
2022-10-18T02:59:16.889Z,383
2022-10-18T03:00:17.509Z,380
2022-10-18T03:02:17.075Z,381
2022-10-18T03:04:17.127Z,374
2022-10-18T03:05:16.957Z,369
2022-10-18T03:06:17.628Z,371
2022-10-18T03:07:17.054Z,378
2022-10-18T03:08:16.541Z,375
2022-10-18T03:09:17.248Z,384
2022-10-18T03:10:16.914Z,381
2022-10-18T03:11:18.147Z,379
2022-10-18T03:12:17.147Z,373
2022-10-18T03:13:17.335Z,374
2022-10-18T03:14:18.105Z,381
2022-10-18T03:15:17.017Z,385
2022-10-18T03:16:16.748Z,400
2022-10-18T03:17:17.674Z,388
2022-10-18T03:19:18.209Z,393
2022-10-18T03:20:17.862Z,389
2022-10-18T03:21:17.350Z,386
2022-10-18T03:22:16.280Z,387
2022-10-18T03:23:17.751Z,388
2022-10-18T03:24:18.185Z,380
2022-10-18T03:25:17.505Z,387
2022-10-18T03:26:16.971Z,386
2022-10-18T03:27:17.574Z,377
2022-10-18T03:28:18.045Z,387
2022-10-18T03:29:17.597Z,388
2022-10-18T03:30:17.223Z,378
2022-10-18T03:31:17.634Z,377
2022-10-18T03:32:17.087Z,371
2022-10-18T03:33:16.953Z,367
2022-10-18T03:34:17.722Z,397
2022-10-18T03:35:17.844Z,384
2022-10-18T03:36:16.816Z,367
2022-10-18T03:38:18.051Z,376
2022-10-18T03:39:17.084Z,373
2022-10-18T03:40:18.012Z,368
2022-10-18T03:41:18.440Z,373
2022-10-18T03:42:17.304Z,371
2022-10-18T03:43:16.693Z,380
2022-10-18T03:44:17.450Z,375
2022-10-18T03:45:17.775Z,379
2022-10-18T03:46:17.259Z,384
2022-10-18T03:47:17.987Z,376
2022-10-18T03:49:16.839Z,379
2022-10-18T03:50:17.580Z,388
2022-10-18T03:51:16.675Z,398
2022-10-18T03:52:16.815Z,360
2022-10-18T03:53:18.142Z,371
2022-10-18T03:54:16.515Z,377
2022-10-18T03:55:17.464Z,368
2022-10-18T03:56:18.489Z,365
2022-10-18T03:57:17.526Z,364
2022-10-18T03:58:16.479Z,369
2022-10-18T03:59:18.135Z,364
2022-10-18T04:00:17.557Z,367
2022-10-18T04:01:17.061Z,366
2022-10-18T04:02:17.050Z,361
2022-10-18T04:03:16.583Z,371
2022-10-18T04:04:16.305Z,375
2022-10-18T04:06:16.933Z,379
2022-10-18T04:07:18.309Z,382
2022-10-18T04:08:17.530Z,372
2022-10-18T04:09:22.181Z,393
2022-10-18T04:10:17.048Z,367
2022-10-18T04:11:16.600Z,376
2022-10-18T04:12:16.743Z,381
2022-10-18T04:14:16.714Z,379
2022-10-18T04:15:18.454Z,388
2022-10-18T04:16:16.232Z,396
2022-10-18T04:17:16.963Z,393
2022-10-18T04:18:18.049Z,384
2022-10-18T04:19:17.172Z,377
2022-10-18T04:20:16.917Z,376
2022-10-18T04:21:17.904Z,378
2022-10-18T04:22:18.861Z,381
2022-10-18T04:23:17.590Z,377
2022-10-18T04:24:16.506Z,384
2022-10-18T04:25:17.471Z,386
2022-10-18T04:26:17.109Z,375
2022-10-18T04:27:16.385Z,387
2022-10-18T04:28:17.931Z,378
2022-10-18T04:29:17.078Z,383
2022-10-18T04:30:16.663Z,381
2022-10-18T04:32:16.775Z,380
2022-10-18T04:33:16.436Z,376
2022-10-18T04:34:18.283Z,381
2022-10-18T04:35:16.901Z,385
2022-10-18T04:36:15.989Z,384
2022-10-18T04:37:16.331Z,372
2022-10-18T04:38:15.827Z,369
2022-10-18T04:39:17.866Z,374
2022-10-18T04:41:16.050Z,379
2022-10-18T04:42:17.006Z,381
2022-10-18T04:43:16.436Z,379
2022-10-18T04:44:15.955Z,387
2022-10-18T04:45:16.788Z,390
2022-10-18T04:46:16.116Z,383
2022-10-18T04:48:17.090Z,381
2022-10-18T04:50:15.907Z,382
2022-10-18T04:51:16.826Z,389
2022-10-18T04:52:16.284Z,397
2022-10-18T04:53:17.393Z,389
2022-10-18T04:54:22.881Z,386
2022-10-18T04:55:16.567Z,380
2022-10-18T04:56:17.012Z,382
2022-10-18T04:57:16.877Z,370
2022-10-18T04:58:15.809Z,372
2022-10-18T04:59:17.006Z,378
2022-10-18T05:00:16.753Z,380
2022-10-18T05:01:16.907Z,383
2022-10-18T05:02:16.642Z,387
2022-10-18T05:03:16.395Z,381
2022-10-18T05:04:17.168Z,383
2022-10-18T05:05:20.283Z,389
2022-10-18T05:06:16.824Z,394
2022-10-18T05:07:16.284Z,383
2022-10-18T05:08:16.783Z,387
2022-10-18T05:09:16.375Z,389
2022-10-18T05:10:21.757Z,386
2022-10-18T05:11:17.294Z,389
2022-10-18T05:13:15.994Z,388
2022-10-18T05:14:16.034Z,398
2022-10-18T05:15:18.009Z,377
2022-10-18T05:16:15.941Z,383
2022-10-18T05:17:16.131Z,388
2022-10-18T05:18:16.435Z,396
2022-10-18T05:19:16.912Z,380
2022-10-18T05:20:16.218Z,379
2022-10-18T05:21:16.732Z,388
2022-10-18T05:22:15.851Z,387
2022-10-18T05:23:15.972Z,383
2022-10-18T05:24:16.706Z,376
2022-10-18T05:25:16.115Z,390
2022-10-18T05:26:15.057Z,388
2022-10-18T05:27:16.509Z,377
2022-10-18T05:28:41.991Z,378
2022-10-18T05:29:15.969Z,382
2022-10-18T05:30:16.015Z,389
2022-10-18T05:31:16.465Z,385
2022-10-18T05:32:14.898Z,381
2022-10-18T05:33:16.292Z,378
2022-10-18T05:34:15.899Z,377
2022-10-18T05:35:16.728Z,387
2022-10-18T05:36:15.737Z,404
2022-10-18T05:37:16.192Z,386
2022-10-18T05:38:15.205Z,388
2022-10-18T05:39:16.500Z,386
2022-10-18T05:40:16.573Z,392
2022-10-18T05:41:17.036Z,380
2022-10-18T05:42:18.767Z,390
2022-10-18T05:43:16.505Z,399
2022-10-18T05:44:17.453Z,389
2022-10-18T05:45:16.682Z,384
2022-10-18T05:46:21.470Z,386
2022-10-18T05:47:18.007Z,399
2022-10-18T05:49:16.734Z,390
2022-10-18T05:50:16.867Z,386
2022-10-18T05:51:16.853Z,375
2022-10-18T05:52:16.715Z,377
2022-10-18T05:53:40.777Z,378
2022-10-18T05:54:16.120Z,391
2022-10-18T05:55:16.653Z,376
2022-10-18T05:56:16.744Z,378
2022-10-18T05:57:16.630Z,373
2022-10-18T05:58:16.556Z,372
2022-10-18T05:59:17.299Z,387
2022-10-18T06:00:15.480Z,384
2022-10-18T06:01:16.955Z,393
2022-10-18T06:02:17.052Z,398
2022-10-18T06:03:16.370Z,393
2022-10-18T06:04:17.286Z,385
2022-10-18T06:05:16.694Z,383
2022-10-18T06:06:16.145Z,386
2022-10-18T06:07:17.126Z,389
2022-10-18T06:09:16.467Z,394
2022-10-18T06:10:17.276Z,379
2022-10-18T06:11:16.844Z,400
2022-10-18T06:12:16.744Z,375
2022-10-18T06:13:17.341Z,395
2022-10-18T06:14:15.824Z,384
2022-10-18T06:15:16.618Z,389
2022-10-18T06:16:18.185Z,386
2022-10-18T06:17:16.654Z,385
2022-10-18T06:18:16.813Z,383
2022-10-18T06:19:17.673Z,382
2022-10-18T06:20:16.980Z,383
2022-10-18T06:21:16.403Z,391
2022-10-18T06:22:17.870Z,388
2022-10-18T06:23:17.566Z,384
2022-10-18T06:24:17.734Z,380
2022-10-18T06:25:17.361Z,389
2022-10-18T06:26:17.561Z,388
2022-10-18T06:27:18.060Z,390
2022-10-18T06:28:17.223Z,394
2022-10-18T06:29:17.510Z,381
2022-10-18T06:30:18.590Z,379
2022-10-18T06:31:16.589Z,387
2022-10-18T06:32:17.298Z,385
2022-10-18T06:34:17.179Z,382
2022-10-18T06:35:17.807Z,384
2022-10-18T06:36:17.639Z,375
2022-10-18T06:37:18.188Z,381
2022-10-18T06:38:17.837Z,379
2022-10-18T06:39:18.121Z,372
2022-10-18T06:40:16.449Z,370
2022-10-18T06:41:16.947Z,383
2022-10-18T06:42:19.130Z,395
2022-10-18T06:43:26.646Z,385
2022-10-18T06:44:18.474Z,387
2022-10-18T06:45:17.625Z,381
2022-10-18T06:46:17.794Z,394
2022-10-18T06:47:17.179Z,391
2022-10-18T06:48:17.317Z,376
2022-10-18T06:50:17.675Z,381
2022-10-18T06:51:16.722Z,384
2022-10-18T06:52:17.700Z,374
2022-10-18T06:53:17.648Z,378
2022-10-18T06:54:23.358Z,377
2022-10-18T06:55:17.082Z,372
2022-10-18T06:56:17.660Z,365
2022-10-18T06:57:16.409Z,372
2022-10-18T06:58:17.900Z,373
2022-10-18T06:59:16.946Z,375
2022-10-18T07:00:17.833Z,380
2022-10-18T07:01:17.385Z,376
2022-10-18T07:02:17.249Z,370
2022-10-18T07:03:17.833Z,378
2022-10-18T07:04:17.321Z,359
2022-10-18T07:05:16.989Z,371
2022-10-18T07:06:17.703Z,365
2022-10-18T07:07:17.542Z,373
2022-10-18T07:10:18.529Z,372
2022-10-18T07:11:17.836Z,373
2022-10-18T07:12:17.326Z,380
2022-10-18T07:13:36.012Z,375
2022-10-18T07:14:22.953Z,366
2022-10-18T07:15:18.013Z,367
2022-10-18T07:16:22.451Z,368
2022-10-18T07:17:18.457Z,376
2022-10-18T07:18:17.413Z,383
2022-10-18T07:19:17.367Z,377
2022-10-18T07:20:17.576Z,376
2022-10-18T07:21:17.679Z,344
2022-10-18T07:22:17.212Z,357
2022-10-18T07:23:18.433Z,366
2022-10-18T07:24:16.702Z,374
2022-10-18T07:25:18.358Z,371
2022-10-18T07:26:17.815Z,369
2022-10-18T07:27:17.303Z,364
2022-10-18T07:28:18.056Z,359
2022-10-18T07:29:17.260Z,349
2022-10-18T07:30:16.757Z,354
2022-10-18T07:31:18.609Z,356
2022-10-18T07:32:17.149Z,357
2022-10-18T07:33:17.222Z,369
2022-10-18T07:34:18.057Z,373
2022-10-18T07:35:17.359Z,365
2022-10-18T07:36:16.538Z,357
2022-10-18T07:37:18.545Z,362
2022-10-18T07:38:17.534Z,339
2022-10-18T07:39:17.194Z,341
2022-10-18T07:40:17.975Z,357
2022-10-18T07:41:16.872Z,356
2022-10-18T07:42:17.617Z,361
2022-10-18T07:43:18.207Z,367
2022-10-18T07:44:16.804Z,359
2022-10-18T07:45:17.392Z,367
2022-10-18T07:46:16.932Z,355
2022-10-18T07:47:16.777Z,354
2022-10-18T07:49:16.876Z,345
2022-10-18T07:50:17.035Z,346
2022-10-18T07:51:17.385Z,353
2022-10-18T07:52:17.057Z,356
2022-10-18T07:53:16.687Z,359
2022-10-18T07:54:17.077Z,342
2022-10-18T07:55:16.516Z,389
2022-10-18T07:56:16.741Z,360
2022-10-18T07:57:20.429Z,344
2022-10-18T07:58:16.283Z,343
2022-10-18T07:59:17.225Z,353
2022-10-18T08:00:16.760Z,354
2022-10-18T08:01:16.270Z,355
2022-10-18T08:02:17.175Z,348
2022-10-18T08:03:16.343Z,347
2022-10-18T08:04:22.317Z,342
2022-10-18T08:05:17.055Z,344
2022-10-18T08:06:16.204Z,357
2022-10-18T08:07:18.092Z,362
2022-10-18T08:08:16.764Z,357
2022-10-18T08:09:16.317Z,360
2022-10-18T08:10:16.948Z,361
2022-10-18T08:11:16.781Z,356
2022-10-18T08:13:18.105Z,358
2022-10-18T08:14:16.548Z,366
2022-10-18T08:15:16.818Z,362
2022-10-18T08:16:16.666Z,366
2022-10-18T08:17:16.248Z,362
2022-10-18T08:18:16.132Z,353
2022-10-18T08:19:16.724Z,356
2022-10-18T08:20:34.616Z,355
2022-10-18T08:21:17.653Z,348
2022-10-18T08:22:16.746Z,358
2022-10-18T08:23:16.569Z,369
2022-10-18T08:24:17.044Z,357
2022-10-18T08:25:18.007Z,346
2022-10-18T08:26:16.036Z,351
2022-10-18T08:27:17.383Z,357
2022-10-18T08:28:16.278Z,370
2022-10-18T08:29:31.489Z,362
2022-10-18T08:30:17.025Z,358
2022-10-18T08:31:16.258Z,350
2022-10-18T08:32:15.861Z,351
2022-10-18T08:33:16.724Z,362
2022-10-18T08:34:24.144Z,364
2022-10-18T08:35:15.835Z,352
2022-10-18T08:37:16.136Z,356
2022-10-18T08:38:23.753Z,357
2022-10-18T08:39:16.381Z,352
2022-10-18T08:40:21.204Z,354
2022-10-18T08:41:16.120Z,365
2022-10-18T08:42:16.857Z,370
2022-10-18T08:43:21.446Z,359
2022-10-18T08:44:15.774Z,355
2022-10-18T08:45:41.957Z,353
2022-10-18T08:46:16.721Z,358
2022-10-18T08:47:16.197Z,349
2022-10-18T08:49:16.530Z,345
2022-10-18T08:50:16.275Z,347
2022-10-18T08:51:16.653Z,349
2022-10-18T08:52:16.835Z,357
2022-10-18T08:53:17.157Z,358
2022-10-18T08:54:17.346Z,355
2022-10-18T08:55:16.376Z,346
2022-10-18T08:56:17.587Z,353
2022-10-18T08:57:16.841Z,356
2022-10-18T08:58:16.419Z,352
2022-10-18T08:59:18.038Z,347
2022-10-18T09:00:16.904Z,351
2022-10-18T09:01:16.787Z,356
2022-10-18T09:02:17.302Z,358
2022-10-18T09:03:16.919Z,366
2022-10-18T09:04:16.593Z,350
2022-10-18T09:05:17.573Z,369
2022-10-18T09:06:19.870Z,355
2022-10-18T09:07:16.123Z,354
2022-10-18T09:08:17.377Z,359
2022-10-18T09:09:16.940Z,353
2022-10-18T09:10:16.670Z,360
2022-10-18T09:11:16.980Z,355
2022-10-18T09:12:17.257Z,357
2022-10-18T09:13:17.294Z,361
2022-10-18T09:14:17.542Z,363
2022-10-18T09:15:17.520Z,365
2022-10-18T09:16:21.629Z,349
2022-10-18T09:18:22.529Z,354
2022-10-18T09:19:17.590Z,349
2022-10-18T09:20:17.637Z,353
2022-10-18T09:21:18.044Z,352
2022-10-18T09:22:21.479Z,342
2022-10-18T09:23:22.106Z,352
2022-10-18T09:24:21.595Z,349
2022-10-18T09:25:18.125Z,339
2022-10-18T09:26:16.955Z,343
2022-10-18T09:27:16.929Z,344
2022-10-18T09:28:17.549Z,343
2022-10-18T09:29:17.013Z,345
2022-10-18T09:31:21.748Z,347
2022-10-18T09:32:18.548Z,350
2022-10-18T09:33:17.168Z,351
2022-10-18T09:34:17.405Z,349
2022-10-18T09:35:18.625Z,341
2022-10-18T09:36:17.036Z,351
2022-10-18T09:37:17.802Z,339
2022-10-18T09:38:17.234Z,365
2022-10-18T09:39:21.488Z,355
2022-10-18T09:40:24.347Z,351
2022-10-18T09:41:18.898Z,354
2022-10-18T09:42:22.220Z,350
2022-10-18T09:43:17.567Z,349
2022-10-18T09:44:17.628Z,352
2022-10-18T09:45:17.071Z,353
2022-10-18T09:46:17.473Z,360
2022-10-18T09:48:17.081Z,357
2022-10-18T09:49:21.370Z,363
2022-10-18T09:50:17.220Z,358
2022-10-18T09:51:17.496Z,350
2022-10-18T09:52:17.655Z,356
2022-10-18T09:53:17.134Z,365
2022-10-18T09:55:17.594Z,374
2022-10-18T09:56:17.032Z,351
2022-10-18T09:57:17.801Z,350
2022-10-18T09:58:17.746Z,362
2022-10-18T09:59:18.069Z,356
2022-10-18T10:00:17.762Z,352
2022-10-18T10:01:17.711Z,355
2022-10-18T10:02:17.337Z,353
2022-10-18T10:03:17.826Z,347
2022-10-18T10:04:17.106Z,350
2022-10-18T10:05:18.136Z,363
2022-10-18T10:06:21.633Z,370
2022-10-18T10:07:17.369Z,371
2022-10-18T10:08:18.189Z,370
2022-10-18T10:09:17.675Z,366
2022-10-18T10:10:17.443Z,363
2022-10-18T10:11:17.499Z,345
2022-10-18T10:12:19.323Z,389
2022-10-18T10:13:16.894Z,341
2022-10-18T10:14:17.829Z,343
2022-10-18T10:15:17.510Z,342
2022-10-18T10:16:16.976Z,351
2022-10-18T10:17:18.023Z,358
2022-10-18T10:18:17.602Z,357
2022-10-18T10:19:16.988Z,359
2022-10-18T10:20:17.676Z,350
2022-10-18T10:21:17.467Z,362
2022-10-18T10:22:17.023Z,370
2022-10-18T10:24:17.709Z,352
2022-10-18T10:25:17.015Z,360
2022-10-18T10:26:17.852Z,365
2022-10-18T10:27:15.969Z,360
2022-10-18T10:28:15.868Z,368
2022-10-18T10:29:43.721Z,362
2022-10-18T10:30:15.749Z,343
2022-10-18T10:31:15.573Z,350
2022-10-18T10:33:15.088Z,353
2022-10-18T10:35:52.201Z,354
2022-10-18T10:36:15.262Z,355
2022-10-18T10:37:16.872Z,347
2022-10-18T10:38:16.800Z,342
2022-10-18T10:39:16.094Z,347
2022-10-18T10:40:27.791Z,346
2022-10-18T10:41:18.004Z,352
2022-10-18T10:42:17.373Z,367
2022-10-18T10:43:38.750Z,362
2022-10-18T10:44:17.299Z,353
2022-10-18T10:45:18.560Z,352
2022-10-18T10:46:17.414Z,388
2022-10-18T10:47:17.434Z,344
2022-10-18T10:48:17.693Z,341
2022-10-18T10:49:43.660Z,356
2022-10-18T10:50:18.254Z,363
2022-10-18T10:51:17.622Z,359
2022-10-18T10:52:30.818Z,343
2022-10-18T10:53:18.369Z,346
2022-10-18T10:54:17.973Z,355
2022-10-18T10:55:38.102Z,359
2022-10-18T10:56:21.215Z,355
2022-10-18T10:57:17.538Z,353
2022-10-18T10:58:17.832Z,349
2022-10-18T11:00:17.947Z,368
2022-10-18T11:01:17.649Z,361
2022-10-18T11:02:16.930Z,366
2022-10-18T11:03:34.856Z,369
2022-10-18T11:04:17.184Z,353
2022-10-18T11:05:16.997Z,355
2022-10-18T11:06:17.684Z,357
2022-10-18T11:07:17.500Z,359
2022-10-18T11:08:20.496Z,354
2022-10-18T11:09:17.392Z,355
2022-10-18T11:10:17.446Z,353
2022-10-18T11:11:20.640Z,349
2022-10-18T11:12:18.195Z,350
2022-10-18T11:13:17.135Z,355
2022-10-18T11:14:31.104Z,365
2022-10-18T11:15:17.525Z,354
2022-10-18T11:16:17.866Z,352
2022-10-18T11:17:18.022Z,349
2022-10-18T11:18:17.447Z,352
2022-10-18T11:19:17.266Z,351
2022-10-18T11:20:18.203Z,353
2022-10-18T11:21:17.628Z,338
2022-10-18T11:22:17.087Z,343
2022-10-18T11:23:17.414Z,353
2022-10-18T11:24:17.593Z,358
2022-10-18T11:25:17.232Z,354
2022-10-18T11:26:17.290Z,358
2022-10-18T11:27:17.047Z,360
2022-10-18T11:28:20.694Z,359
2022-10-18T11:29:18.087Z,362
2022-10-18T11:30:17.429Z,356
2022-10-18T11:31:16.221Z,355
2022-10-18T11:32:16.510Z,348
2022-10-18T11:33:16.746Z,351
2022-10-18T11:34:16.811Z,354
2022-10-18T11:35:16.746Z,357
2022-10-18T11:36:17.627Z,346
2022-10-18T11:37:37.506Z,381
2022-10-18T11:38:16.986Z,341
2022-10-18T11:39:18.481Z,346
2022-10-18T11:40:17.105Z,348
2022-10-18T11:41:16.343Z,357
2022-10-18T11:42:17.343Z,356
2022-10-18T11:43:16.849Z,353
2022-10-18T11:44:16.351Z,361
2022-10-18T11:45:17.386Z,359
2022-10-18T11:46:16.953Z,350
2022-10-18T11:47:17.248Z,348
2022-10-18T11:48:17.230Z,365
2022-10-18T11:49:17.224Z,354
2022-10-18T11:50:16.349Z,352
2022-10-18T11:51:17.147Z,356
2022-10-18T11:52:17.105Z,349
2022-10-18T11:53:16.295Z,337
2022-10-18T11:54:17.426Z,360
2022-10-18T11:55:21.180Z,357
2022-10-18T11:56:21.846Z,349
2022-10-18T11:57:17.644Z,355
2022-10-18T11:58:17.003Z,353
2022-10-18T11:59:18.911Z,349
2022-10-18T12:00:17.181Z,348
2022-10-18T12:01:17.150Z,361
2022-10-18T12:02:22.244Z,346
2022-10-18T12:03:17.285Z,347
2022-10-18T12:04:16.601Z,346
2022-10-18T12:05:28.745Z,351
2022-10-18T12:06:17.923Z,359
2022-10-18T12:07:19.780Z,357
2022-10-18T12:08:17.533Z,367
2022-10-18T12:09:17.439Z,375
2022-10-18T12:10:22.143Z,368
2022-10-18T12:11:17.218Z,356
2022-10-18T12:12:17.174Z,360
2022-10-18T12:13:17.836Z,361
2022-10-18T12:14:17.036Z,355
2022-10-18T12:16:16.974Z,363
2022-10-18T12:17:49.931Z,367
2022-10-18T12:18:17.118Z,360
2022-10-18T12:19:16.498Z,358
2022-10-18T12:20:17.281Z,348
2022-10-18T12:21:16.868Z,353
2022-10-18T12:22:16.489Z,355
2022-10-18T12:23:17.438Z,348
2022-10-18T12:24:17.110Z,352
2022-10-18T12:25:17.213Z,361
2022-10-18T12:26:17.501Z,359
2022-10-18T12:27:17.124Z,338
2022-10-18T12:28:16.554Z,369
2022-10-18T12:29:18.322Z,361
2022-10-18T12:30:17.215Z,358
2022-10-18T12:31:17.027Z,360
2022-10-18T12:32:17.108Z,353
2022-10-18T12:33:32.811Z,355
2022-10-18T12:34:17.613Z,351
2022-10-18T12:35:17.967Z,353
2022-10-18T12:36:17.155Z,356
2022-10-18T12:37:18.347Z,350
2022-10-18T12:39:21.555Z,351
2022-10-18T12:40:23.803Z,345
2022-10-18T12:41:17.597Z,352
2022-10-18T12:42:17.128Z,351
2022-10-18T12:43:17.409Z,353
2022-10-18T12:44:17.415Z,359
2022-10-18T12:45:17.719Z,340
2022-10-18T12:46:19.084Z,352
2022-10-18T12:47:17.965Z,354
2022-10-18T12:48:17.311Z,353
2022-10-18T12:49:17.263Z,351
2022-10-18T12:50:17.740Z,355
2022-10-18T12:51:17.707Z,365
2022-10-18T12:52:17.375Z,363
2022-10-18T12:53:17.574Z,356
2022-10-18T12:54:17.633Z,348
2022-10-18T12:55:22.292Z,346
2022-10-18T12:56:19.883Z,348
2022-10-18T12:57:18.113Z,352
2022-10-18T12:58:18.122Z,346
2022-10-18T12:59:17.566Z,340
2022-10-18T13:00:17.317Z,355
2022-10-18T13:02:20.077Z,346
2022-10-18T13:03:17.446Z,333
2022-10-18T13:04:18.618Z,342
2022-10-18T13:05:48.809Z,345
2022-10-18T13:06:17.081Z,343
2022-10-18T13:07:18.028Z,357
2022-10-18T13:08:18.316Z,350
2022-10-18T13:09:17.530Z,330
2022-10-18T13:10:17.697Z,337
2022-10-18T13:11:17.173Z,345
2022-10-18T13:12:17.819Z,353
2022-10-18T13:13:40.600Z,356
2022-10-18T13:14:17.270Z,346
2022-10-18T13:15:34.213Z,341
2022-10-18T13:16:18.922Z,348
2022-10-18T13:17:17.803Z,368
2022-10-18T13:18:18.083Z,336
2022-10-18T13:19:17.641Z,342
2022-10-18T13:20:31.476Z,341
2022-10-18T13:21:18.289Z,349
2022-10-18T13:22:17.876Z,347
2022-10-18T13:23:17.201Z,342
2022-10-18T13:24:17.908Z,345
2022-10-18T13:25:17.611Z,341
2022-10-18T13:27:38.659Z,345
2022-10-18T13:28:17.566Z,355
2022-10-18T13:29:16.713Z,351
2022-10-18T13:30:17.942Z,337
2022-10-18T13:31:17.952Z,335
2022-10-18T13:33:17.781Z,356
2022-10-18T13:34:18.320Z,319
2022-10-18T13:35:17.420Z,327
2022-10-18T13:36:22.855Z,332
2022-10-18T13:37:17.387Z,337
2022-10-18T13:38:17.254Z,338
2022-10-18T13:39:18.051Z,337
2022-10-18T13:40:17.326Z,339
2022-10-18T13:41:18.784Z,349
2022-10-18T13:42:17.371Z,352
2022-10-18T13:43:17.191Z,351
2022-10-18T13:44:18.290Z,347
2022-10-18T13:45:17.559Z,339
2022-10-18T13:46:17.313Z,340
2022-10-18T13:47:17.789Z,344
2022-10-18T13:48:20.937Z,347
2022-10-18T13:49:18.430Z,355
2022-10-18T13:50:17.724Z,343
2022-10-18T13:51:16.856Z,344
2022-10-18T13:52:18.283Z,348
2022-10-18T13:53:17.679Z,350
2022-10-18T13:54:18.472Z,359
2022-10-18T13:55:17.560Z,342
2022-10-18T13:56:17.444Z,335
2022-10-18T13:57:17.724Z,337
2022-10-18T13:58:17.766Z,344
2022-10-18T13:59:20.885Z,334
2022-10-18T14:00:18.296Z,335
2022-10-18T14:01:20.248Z,350
2022-10-18T14:02:30.708Z,340
2022-10-18T14:03:56.359Z,334
2022-10-18T14:04:17.504Z,330
2022-10-18T14:05:30.188Z,318
2022-10-18T14:06:18.050Z,356
2022-10-18T14:07:17.635Z,350
2022-10-18T14:09:44.889Z,339
2022-10-18T14:10:18.746Z,343
2022-10-18T14:12:17.431Z,349
2022-10-18T14:13:17.931Z,340
2022-10-18T14:14:17.383Z,342
2022-10-18T14:15:16.683Z,350
2022-10-18T14:16:17.598Z,349
2022-10-18T14:17:22.942Z,347
2022-10-18T14:18:18.452Z,354
2022-10-18T14:19:21.902Z,343
2022-10-18T14:20:17.294Z,339
2022-10-18T14:21:22.317Z,334
2022-10-18T14:22:17.984Z,326
2022-10-18T14:23:17.065Z,330
2022-10-18T14:24:18.046Z,333
2022-10-18T14:25:17.153Z,338
2022-10-18T14:26:16.391Z,345
2022-10-18T14:27:20.041Z,336
2022-10-18T14:28:18.519Z,335
2022-10-18T14:29:17.078Z,336
2022-10-18T14:30:17.720Z,337
2022-10-18T14:31:17.196Z,334
2022-10-18T14:32:16.717Z,337
2022-10-18T14:33:17.923Z,332
2022-10-18T14:34:17.164Z,340
2022-10-18T14:35:37.796Z,338
2022-10-18T14:36:21.181Z,331